| time (UTC) | temp F | wind direction | speed MPH | gust MPH | rain 1hr in | rain 24hr in | rain mn in | humidity % | barometer mb |
| 20260507120437 | 57 | 201 | 0.0 | 0.0 | 0.00 | 0.00 | 0.00 | 44 | 1021.6 |
| 20260507115934 | 57 | 208 | 0.0 | 0.0 | 0.00 | 0.00 | 0.00 | 44 | 1021.5 |
| 20260507115430 | 57 | 16 | 1.0 | 2.0 | 0.00 | 0.00 | 0.00 | 44 | 1021.4 |
| 20260507114926 | 57 | 190 | 1.0 | 1.0 | 0.00 | 0.00 | 0.00 | 45 | 1021.6 |
| 20260507114423 | 57 | 188 | 0.0 | 1.0 | 0.00 | 0.00 | 0.00 | 45 | 1021.6 |
| 20260507113920 | 56 | 223 | 0.0 | 0.0 | 0.00 | 0.00 | 0.00 | 46 | 1021.7 |
| 20260507113417 | 56 | 255 | 0.0 | 0.0 | 0.00 | 0.00 | 0.00 | 47 | 1021.5 |
| 20260507112914 | 56 | 355 | 2.0 | 2.0 | 0.00 | 0.00 | 0.00 | 47 | 1021.6 |
| 20260507112412 | 56 | 220 | 0.0 | 0.0 | 0.00 | 0.00 | 0.00 | 50 | 1021.8 |
| 20260507111909 | 56 | 197 | 2.0 | 2.0 | 0.00 | 0.00 | 0.00 | 50 | 1021.6 |
| 20260507111406 | 56 | 228 | 0.0 | 0.0 | 0.00 | 0.00 | 0.00 | 49 | 1021.7 |
| 20260507110902 | 56 | 294 | 0.0 | 1.0 | 0.00 | 0.00 | 0.00 | 50 | 1021.7 |
| 20260507110358 | 55 | 268 | 0.0 | 1.0 | 0.00 | 0.00 | 0.00 | 51 | 1021.6 |
| 20260507105855 | 55 | 249 | 0.0 | 0.0 | 0.00 | 0.00 | 0.00 | 52 | 1021.8 |
| 20260507105352 | 56 | 208 | 0.0 | 0.0 | 0.00 | 0.00 | 0.00 | 53 | 1021.7 |
| 20260507104849 | 56 | 196 | 0.0 | 0.0 | 0.00 | 0.00 | 0.00 | 55 | 1021.5 |
| 20260507104345 | 55 | 201 | 0.0 | 1.0 | 0.00 | 0.00 | 0.00 | 54 | 1021.9 |
| 20260507103841 | 55 | 201 | 0.0 | 0.0 | 0.00 | 0.00 | 0.00 | 56 | 1021.6 |
| 20260507103338 | 55 | 236 | 1.0 | 1.0 | 0.00 | 0.00 | 0.00 | 56 | 1021.9 |
| 20260507102835 | 56 | 217 | 0.0 | 0.0 | 0.00 | 0.00 | 0.00 | 55 | 1021.8 |
| 20260507102331 | 56 | 238 | 1.0 | 1.0 | 0.00 | 0.00 | 0.00 | 54 | 1021.7 |
| 20260507101828 | 56 | 241 | 0.0 | 0.0 | 0.00 | 0.00 | 0.00 | 54 | 1021.6 |
| 20260507101327 | 55 | 208 | 1.0 | 1.0 | 0.00 | 0.00 | 0.00 | 55 | 1021.7 |
| 20260507100825 | 55 | 198 | 0.0 | 0.0 | 0.00 | 0.00 | 0.00 | 56 | 1021.7 |
| 20260507100323 | 55 | 165 | 0.0 | 1.0 | 0.00 | 0.00 | 0.00 | 58 | 1021.4 |
| 20260507095821 | 55 | 193 | 0.0 | 0.0 | 0.00 | 0.00 | 0.00 | 58 | 1021.7 |
| 20260507095317 | 55 | 199 | 1.0 | 1.0 | 0.00 | 0.00 | 0.00 | 58 | 1021.7 |
| 20260507094814 | 55 | 221 | 0.0 | 1.0 | 0.00 | 0.00 | 0.00 | 58 | 1021.7 |
| 20260507094311 | 55 | 212 | 0.0 | 0.0 | 0.00 | 0.00 | 0.00 | 58 | 1021.7 |
| 20260507093808 | 55 | 242 | 0.0 | 0.0 | 0.00 | 0.00 | 0.00 | 59 | 1021.6 |
| 20260507093306 | 55 | 235 | 0.0 | 0.0 | 0.00 | 0.00 | 0.00 | 58 | 1021.9 |
| 20260507092804 | 55 | 269 | 0.0 | 0.0 | 0.00 | 0.00 | 0.00 | 57 | 1022.1 |
| 20260507092300 | 56 | 338 | 1.0 | 2.0 | 0.00 | 0.00 | 0.00 | 55 | 1021.8 |
| 20260507091756 | 56 | 302 | 1.0 | 1.0 | 0.00 | 0.00 | 0.00 | 52 | 1022.1 |
| 20260507091253 | 55 | 280 | 1.0 | 1.0 | 0.00 | 0.00 | 0.00 | 51 | 1021.8 |
| 20260507090753 | 55 | 213 | 0.0 | 0.0 | 0.00 | 0.00 | 0.00 | 52 | 1021.9 |
| 20260507090250 | 56 | 209 | 0.0 | 1.0 | 0.00 | 0.00 | 0.00 | 52 | 1021.9 |
| 20260507085747 | 56 | 231 | 0.0 | 0.0 | 0.00 | 0.00 | 0.00 | 52 | 1021.9 |
| 20260507085244 | 55 | 221 | 0.0 | 0.0 | 0.00 | 0.00 | 0.00 | 52 | 1021.7 |
| 20260507084742 | 56 | 209 | 0.0 | 0.0 | 0.00 | 0.00 | 0.00 | 53 | 1022.1 |
| 20260507084238 | 55 | 215 | 0.0 | 0.0 | 0.00 | 0.00 | 0.00 | 54 | 1021.9 |
| 20260507083735 | 55 | 190 | 0.0 | 1.0 | 0.00 | 0.00 | 0.00 | 54 | 1022.1 |
| 20260507083232 | 55 | 205 | 0.0 | 1.0 | 0.00 | 0.00 | 0.00 | 54 | 1022.3 |
| 20260507082728 | 55 | 207 | 0.0 | 0.0 | 0.00 | 0.00 | 0.00 | 54 | 1022.1 |
| 20260507082224 | 55 | 247 | 0.0 | 0.0 | 0.00 | 0.00 | 0.00 | 53 | 1022.2 |
| 20260507081721 | 55 | 245 | 0.0 | 0.0 | 0.00 | 0.00 | 0.00 | 52 | 1022.2 |
| 20260507081217 | 56 | 264 | 1.0 | 1.0 | 0.00 | 0.00 | 0.00 | 50 | 1022.1 |
| 20260507080714 | 56 | 237 | 0.0 | 1.0 | 0.00 | 0.00 | 0.00 | 49 | 1022.3 |
| 20260507080210 | 56 | 203 | 0.0 | 1.0 | 0.00 | 0.00 | 0.00 | 49 | 1022.3 |
| 20260507075705 | 57 | 191 | 0.0 | 1.0 | 0.00 | 0.00 | 0.00 | 48 | 1022.2 |
| 20260507075202 | 56 | 242 | 1.0 | 1.0 | 0.00 | 0.00 | 0.00 | 50 | 1022.3 |
| 20260507074658 | 55 | 100 | 1.0 | 2.0 | 0.00 | 0.00 | 0.00 | 50 | 1022.3 |
| 20260507074157 | 55 | 229 | 0.0 | 1.0 | 0.00 | 0.00 | 0.00 | 51 | 1022.3 |
| 20260507073653 | 55 | 191 | 1.0 | 2.0 | 0.00 | 0.00 | 0.00 | 52 | 1022.2 |
| 20260507073149 | 54 | 146 | 5.0 | 7.0 | 0.00 | 0.00 | 0.00 | 56 | 1022.2 |
| 20260507072647 | 54 | 193 | 1.0 | 1.0 | 0.00 | 0.00 | 0.00 | 58 | 1022.1 |
| 20260507072144 | 54 | 184 | 1.0 | 1.0 | 0.00 | 0.00 | 0.00 | 57 | 1022.4 |
| 20260507071642 | 55 | 165 | 2.0 | 2.0 | 0.00 | 0.00 | 0.00 | 56 | 1022.1 |
| 20260507071138 | 54 | 208 | 2.0 | 2.0 | 0.00 | 0.00 | 0.00 | 56 | 1022.3 |
| 20260507070635 | 53 | 221 | 0.0 | 0.0 | 0.00 | 0.00 | 0.00 | 58 | 1022.3 |
| 20260507070132 | 54 | 222 | 0.0 | 1.0 | 0.00 | 0.00 | 0.00 | 57 | 1022.3 |
| 20260507065628 | 55 | 211 | 1.0 | 1.0 | 0.00 | 0.00 | 0.00 | 56 | 1022.4 |
| 20260507065125 | 54 | 230 | 0.0 | 1.0 | 0.00 | 0.00 | 0.00 | 57 | 1022.5 |
| 20260507064623 | 53 | 196 | 1.0 | 2.0 | 0.00 | 0.00 | 0.00 | 61 | 1022.4 |
| 20260507064121 | 53 | 154 | 1.0 | 2.0 | 0.00 | 0.00 | 0.00 | 62 | 1022.3 |
| 20260507063618 | 53 | 184 | 1.0 | 1.0 | 0.00 | 0.00 | 0.00 | 61 | 1022.3 |
| 20260507063115 | 53 | 192 | 1.0 | 1.0 | 0.00 | 0.00 | 0.00 | 61 | 1022.3 |
| 20260507062612 | 53 | 187 | 1.0 | 1.0 | 0.00 | 0.00 | 0.00 | 63 | 1022.3 |
| 20260507062110 | 53 | 203 | 0.0 | 1.0 | 0.00 | 0.00 | 0.00 | 63 | 1022.4 |
| 20260507061607 | 53 | 200 | 1.0 | 1.0 | 0.00 | 0.00 | 0.00 | 63 | 1022.3 |
| 20260507061105 | 53 | 196 | 0.0 | 0.0 | 0.00 | 0.00 | 0.00 | 63 | 1022.5 |
| 20260507060603 | 53 | 194 | 0.0 | 1.0 | 0.00 | 0.00 | 0.00 | 62 | 1022.1 |
| 20260507060059 | 53 | 196 | 1.0 | 1.0 | 0.00 | 0.00 | 0.00 | 62 | 1022.2 |
| 20260507055554 | 53 | 218 | 1.0 | 1.0 | 0.00 | 0.00 | 0.00 | 63 | 1022.3 |
| 20260507055051 | 53 | 218 | 0.0 | 1.0 | 0.00 | 0.00 | 0.00 | 63 | 1022.2 |
| 20260507054547 | 53 | 215 | 0.0 | 0.0 | 0.00 | 0.00 | 0.00 | 62 | 1022.4 |
| 20260507054044 | 53 | 220 | 1.0 | 1.0 | 0.00 | 0.00 | 0.00 | 62 | 1022.5 |
| 20260507053542 | 53 | 224 | 0.0 | 0.0 | 0.00 | 0.00 | 0.00 | 63 | 1022.6 |
| 20260507053040 | 53 | 184 | 0.0 | 0.0 | 0.00 | 0.00 | 0.00 | 63 | 1022.4 |
| 20260507052538 | 53 | 219 | 0.0 | 1.0 | 0.00 | 0.00 | 0.00 | 65 | 1022.8 |
| 20260507052034 | 53 | 201 | 1.0 | 1.0 | 0.00 | 0.00 | 0.00 | 66 | 1022.5 |
| 20260507051532 | 52 | 208 | 0.0 | 0.0 | 0.00 | 0.00 | 0.00 | 67 | 1022.6 |
| 20260507051028 | 53 | 227 | 0.0 | 0.0 | 0.00 | 0.00 | 0.00 | 67 | 1022.4 |
| 20260507050525 | 53 | 222 | 0.0 | 0.0 | 0.00 | 0.00 | 0.00 | 67 | 1022.3 |
| 20260507050022 | 53 | 242 | 2.0 | 3.0 | 0.00 | 0.00 | 0.00 | 68 | 1022.4 |
| 20260507045518 | 53 | 230 | 0.0 | 0.0 | 0.00 | 0.00 | 0.00 | 68 | 1022.3 |
| 20260507045016 | 53 | 242 | 0.0 | 0.0 | 0.00 | 0.00 | 0.00 | 70 | 1022.4 |
| 20260507044512 | 53 | 226 | 1.0 | 1.0 | 0.00 | 0.00 | 0.00 | 68 | 1022.2 |
| 20260507044009 | 53 | 243 | 0.0 | 0.0 | 0.00 | 0.00 | 0.00 | 69 | 1022.3 |
| 20260507043505 | 52 | 230 | 1.0 | 1.0 | 0.00 | 0.00 | 0.00 | 73 | 1022.3 |
| 20260507043002 | 52 | 230 | 0.0 | 1.0 | 0.00 | 0.00 | 0.00 | 76 | 1022.4 |
| 20260507042458 | 52 | 206 | 0.0 | 1.0 | 0.00 | 0.00 | 0.00 | 76 | 1022.3 |
| 20260507041954 | 51 | 223 | 0.0 | 0.0 | 0.00 | 0.00 | 0.00 | 77 | 1022.3 |
| 20260507041451 | 51 | 223 | 0.0 | 1.0 | 0.00 | 0.00 | 0.00 | 77 | 1022.2 |
| 20260507040948 | 51 | 194 | 0.0 | 1.0 | 0.00 | 0.00 | 0.00 | 78 | 1022.5 |
| 20260507040443 | 51 | 192 | 0.0 | 0.0 | 0.00 | 0.00 | 0.00 | 78 | 1022.2 |
| 20260507035939 | 51 | 213 | 1.0 | 1.0 | 0.00 | 0.00 | 0.00 | 78 | 1022.2 |
| 20260507035436 | 52 | 308 | 1.0 | 1.0 | 0.00 | 0.00 | 0.00 | 76 | 1022.5 |
| 20260507034933 | 51 | 313 | 2.0 | 2.0 | 0.00 | 0.00 | 0.00 | 78 | 1022.1 |
| 20260507034430 | 51 | 215 | 0.0 | 0.0 | 0.00 | 0.00 | 0.00 | 78 | 1021.8 |
| 20260507033928 | 52 | 258 | 1.0 | 1.0 | 0.00 | 0.00 | 0.00 | 75 | 1021.9 |
| 20260507033426 | 52 | 332 | 3.0 | 3.0 | 0.00 | 0.00 | 0.00 | 74 | 1021.6 |
| 20260507032922 | 53 | 32 | 3.0 | 3.0 | 0.00 | 0.00 | 0.00 | 75 | 1021.7 |
| 20260507032420 | 52 | 341 | 4.0 | 5.0 | 0.00 | 0.00 | 0.00 | 77 | 1021.8 |
| 20260507031915 | 52 | 214 | 1.0 | 1.0 | 0.00 | 0.00 | 0.00 | 77 | 1021.8 |
| 20260507031412 | 52 | 196 | 1.0 | 2.0 | 0.00 | 0.00 | 0.00 | 77 | 1021.8 |
| 20260507030909 | 52 | 209 | 1.0 | 1.0 | 0.00 | 0.00 | 0.00 | 76 | 1021.7 |
| 20260507030406 | 52 | 231 | 0.0 | 1.0 | 0.00 | 0.00 | 0.00 | 76 | 1021.7 |
| 20260507025903 | 52 | 243 | 0.0 | 0.0 | 0.00 | 0.00 | 0.00 | 75 | 1021.7 |
| 20260507025401 | 52 | 201 | 0.0 | 1.0 | 0.00 | 0.00 | 0.00 | 75 | 1021.6 |
| 20260507024858 | 52 | 195 | 0.0 | 1.0 | 0.00 | 0.00 | 0.00 | 75 | 1021.5 |
| 20260507024355 | 52 | 173 | 0.0 | 1.0 | 0.00 | 0.00 | 0.00 | 76 | 1021.8 |
| 20260507023851 | 53 | 195 | 0.0 | 0.0 | 0.00 | 0.00 | 0.00 | 76 | 1021.7 |
| 20260507023348 | 53 | 191 | 1.0 | 1.0 | 0.00 | 0.00 | 0.00 | 76 | 1021.2 |
| 20260507022845 | 54 | 186 | 1.0 | 1.0 | 0.00 | 0.00 | 0.00 | 75 | 1021.5 |
| 20260507022342 | 54 | 210 | 1.0 | 2.0 | 0.00 | 0.00 | 0.00 | 72 | 1021.6 |
| 20260507021838 | 54 | 190 | 3.0 | 3.0 | 0.00 | 0.00 | 0.00 | 73 | 1021.4 |
| 20260507021333 | 55 | 287 | 2.0 | 3.0 | 0.00 | 0.00 | 0.00 | 71 | 1021.1 |
| 20260507020831 | 55 | 300 | 3.0 | 3.0 | 0.00 | 0.00 | 0.00 | 71 | 1020.9 |
| 20260507020328 | 55 | 316 | 3.0 | 3.0 | 0.00 | 0.00 | 0.00 | 67 | 1021.1 |
| 20260507015825 | 56 | 227 | 2.0 | 2.0 | 0.00 | 0.00 | 0.00 | 66 | 1021.1 |
| 20260507015323 | 57 | 299 | 3.0 | 3.0 | 0.00 | 0.00 | 0.00 | 63 | 1021.0 |
| 20260507014820 | 58 | 298 | 2.0 | 2.0 | 0.00 | 0.00 | 0.00 | 65 | 1021.1 |
| 20260507014316 | 58 | 294 | 2.0 | 2.0 | 0.00 | 0.00 | 0.00 | 64 | 1021.1 |
| 20260507013812 | 58 | 207 | 1.0 | 1.0 | 0.00 | 0.00 | 0.00 | 62 | 1020.9 |
| 20260507013310 | 59 | 231 | 0.0 | 0.0 | 0.00 | 0.00 | 0.00 | 63 | 1021.1 |
| 20260507012807 | 59 | 323 | 3.0 | 3.0 | 0.00 | 0.00 | 0.00 | 64 | 1020.9 |
| 20260507012306 | 59 | 261 | 1.0 | 1.0 | 0.00 | 0.00 | 0.00 | 62 | 1021.1 |
| 20260507011800 | 59 | 239 | 3.0 | 5.0 | 0.00 | 0.00 | 0.00 | 62 | 1020.9 |
| 20260507011257 | 59 | 261 | 1.0 | 2.0 | 0.00 | 0.00 | 0.00 | 61 | 1020.9 |
| 20260507010756 | 60 | 284 | 0.0 | 1.0 | 0.00 | 0.00 | 0.00 | 61 | 1020.9 |
| 20260507010252 | 60 | 289 | 1.0 | 1.0 | 0.00 | 0.00 | 0.00 | 61 | 1020.9 |
| 20260507005750 | 60 | 316 | 1.0 | 1.0 | 0.00 | 0.00 | 0.00 | 61 | 1021.1 |
| 20260507005246 | 60 | 314 | 1.0 | 2.0 | 0.00 | 0.00 | 0.00 | 61 | 1021.0 |
| 20260507004743 | 60 | 312 | 3.0 | 3.0 | 0.00 | 0.00 | 0.00 | 62 | 1021.2 |
| 20260507004241 | 60 | 229 | 1.0 | 1.0 | 0.00 | 0.00 | 0.00 | 64 | 1021.0 |
| 20260507003736 | 60 | 254 | 1.0 | 1.0 | 0.00 | 0.00 | 0.00 | 69 | 1021.0 |
| 20260507003232 | 60 | 231 | 2.0 | 3.0 | 0.00 | 0.00 | 0.00 | 68 | 1020.9 |
| 20260507002728 | 61 | 237 | 2.0 | 3.0 | 0.00 | 0.00 | 0.00 | 69 | 1020.6 |
| 20260507002224 | 61 | 264 | 1.0 | 2.0 | 0.00 | 0.00 | 0.00 | 70 | 1020.8 |
| 20260507001721 | 60 | 282 | 1.0 | 2.0 | 0.00 | 0.00 | 0.00 | 71 | 1020.6 |
| 20260507001219 | 60 | 268 | 2.0 | 2.0 | 0.00 | 0.00 | 0.00 | 71 | 1020.8 |
| 20260507000715 | 61 | 337 | 2.0 | 2.0 | 0.00 | 0.00 | 0.00 | 71 | 1020.8 |
| 20260507000212 | 61 | 278 | 1.0 | 1.0 | 0.00 | 0.00 | 0.00 | 69 | 1020.8 |
| 20260506235708 | 62 | 316 | 3.0 | 3.0 | 0.00 | 0.00 | 0.00 | 68 | 1020.5 |
| 20260506235203 | 63 | 203 | 1.0 | 2.0 | 0.00 | 0.00 | 0.00 | 62 | 1020.4 |
| 20260506234700 | 63 | 286 | 3.0 | 3.0 | 0.00 | 0.00 | 0.00 | 61 | 1020.5 |
| 20260506234157 | 64 | 295 | 1.0 | 2.0 | 0.00 | 0.00 | 0.00 | 58 | 1020.3 |
| 20260506233655 | 63 | 282 | 1.0 | 1.0 | 0.00 | 0.00 | 0.00 | 62 | 1020.5 |
| 20260506233151 | 63 | 247 | 2.0 | 2.0 | 0.00 | 0.00 | 0.00 | 62 | 1020.6 |
| 20260506232648 | 63 | 229 | 1.0 | 1.0 | 0.00 | 0.00 | 0.00 | 64 | 1020.6 |
| 20260506232143 | 63 | 219 | 1.0 | 1.0 | 0.00 | 0.00 | 0.00 | 62 | 1020.6 |
| 20260506231640 | 62 | 283 | 2.0 | 2.0 | 0.00 | 0.00 | 0.00 | 60 | 1020.4 |
| 20260506231139 | 61 | 301 | 2.0 | 2.0 | 0.00 | 0.00 | 0.00 | 65 | 1020.8 |
| 20260506230635 | 61 | 296 | 1.0 | 1.0 | 0.00 | 0.00 | 0.00 | 65 | 1020.8 |
| 20260506230132 | 62 | 247 | 1.0 | 1.0 | 0.00 | 0.00 | 0.00 | 66 | 1020.8 |
| 20260506225628 | 61 | 206 | 0.0 | 0.0 | 0.00 | 0.00 | 0.00 | 66 | 1020.5 |
| 20260506225125 | 62 | 12 | 3.0 | 3.0 | 0.00 | 0.00 | 0.00 | 67 | 1020.4 |
| 20260506224622 | 61 | 249 | 1.0 | 2.0 | 0.00 | 0.00 | 0.00 | 69 | 1020.5 |
| 20260506224118 | 61 | 275 | 2.0 | 2.0 | 0.00 | 0.00 | 0.00 | 69 | 1020.9 |
| 20260506223615 | 63 | 258 | 2.0 | 3.0 | 0.00 | 0.00 | 0.00 | 67 | 1020.8 |
| 20260506223111 | 63 | 272 | 3.0 | 5.0 | 0.00 | 0.00 | 0.00 | 63 | 1020.6 |
| 20260506222608 | 62 | 197 | 1.0 | 2.0 | 0.00 | 0.00 | 0.00 | 65 | 1020.6 |
| 20260506222104 | 60 | 180 | 2.0 | 3.0 | 0.00 | 0.00 | 0.00 | 67 | 1020.5 |
| 20260506221602 | 63 | 165 | 2.0 | 3.0 | 0.00 | 0.00 | 0.00 | 68 | 1020.8 |
| 20260506221100 | 63 | 233 | 1.0 | 1.0 | 0.00 | 0.00 | 0.00 | 66 | 1020.8 |
| 20260506220555 | 61 | 218 | 3.0 | 3.0 | 0.00 | 0.00 | 0.00 | 63 | 1020.6 |
| 20260506220051 | 60 | 185 | 3.0 | 3.0 | 0.00 | 0.00 | 0.00 | 66 | 1020.6 |
| 20260506215548 | 61 | 220 | 4.0 | 5.0 | 0.00 | 0.00 | 0.00 | 65 | 1020.8 |
| 20260506215044 | 61 | 193 | 3.0 | 5.0 | 0.00 | 0.00 | 0.00 | 67 | 1020.9 |
| 20260506214541 | 60 | 219 | 1.0 | 2.0 | 0.00 | 0.00 | 0.00 | 67 | 1020.9 |
| 20260506214038 | 61 | 229 | 2.0 | 2.0 | 0.00 | 0.00 | 0.00 | 66 | 1020.9 |
| 20260506213536 | 61 | 220 | 0.0 | 1.0 | 0.00 | 0.00 | 0.00 | 66 | 1021.1 |
| 20260506213033 | 61 | 307 | 2.0 | 3.0 | 0.00 | 0.00 | 0.00 | 65 | 1021.4 |
| 20260506212530 | 61 | 231 | 2.0 | 2.0 | 0.00 | 0.00 | 0.00 | 65 | 1021.2 |
| 20260506212025 | 60 | 215 | 3.0 | 3.0 | 0.00 | 0.00 | 0.00 | 68 | 1020.9 |
| 20260506211521 | 61 | 211 | 1.0 | 2.0 | 0.00 | 0.00 | 0.00 | 68 | 1021.1 |
| 20260506211018 | 60 | 254 | 3.0 | 3.0 | 0.00 | 0.00 | 0.00 | 67 | 1021.0 |
| 20260506210515 | 61 | 228 | 3.0 | 5.0 | 0.00 | 0.00 | 0.00 | 65 | 1021.2 |
| 20260506210011 | 61 | 200 | 3.0 | 3.0 | 0.00 | 0.00 | 0.00 | 68 | 1021.1 |
| 20260506205508 | 59 | 214 | 3.0 | 3.0 | 0.00 | 0.00 | 0.00 | 72 | 1021.0 |
| 20260506205003 | 59 | 203 | 2.0 | 3.0 | 0.00 | 0.00 | 0.00 | 73 | 1021.2 |
| 20260506204502 | 60 | 251 | 2.0 | 3.0 | 0.00 | 0.00 | 0.00 | 70 | 1021.1 |
| 20260506203958 | 60 | 247 | 2.0 | 2.0 | 0.00 | 0.00 | 0.00 | 70 | 1021.1 |
| 20260506203456 | 60 | 191 | 2.0 | 3.0 | 0.00 | 0.00 | 0.00 | 70 | 1021.4 |
| 20260506202953 | 61 | 203 | 0.0 | 0.0 | 0.00 | 0.00 | 0.00 | 69 | 1021.1 |
| 20260506202450 | 60 | 212 | 1.0 | 1.0 | 0.00 | 0.00 | 0.00 | 70 | 1021.1 |
| 20260506201946 | 61 | 200 | 0.0 | 0.0 | 0.00 | 0.00 | 0.00 | 71 | 1021.5 |
| 20260506201444 | 61 | 191 | 1.0 | 1.0 | 0.00 | 0.00 | 0.00 | 67 | 1021.1 |
| 20260506200940 | 60 | 277 | 1.0 | 1.0 | 0.00 | 0.00 | 0.00 | 65 | 1021.1 |
| 20260506200437 | 62 | 256 | 2.0 | 2.0 | 0.00 | 0.00 | 0.00 | 66 | 1021.2 |
| 20260506195933 | 62 | 153 | 3.0 | 3.0 | 0.00 | 0.00 | 0.00 | 64 | 1021.2 |
| 20260506195430 | 61 | 190 | 1.0 | 2.0 | 0.00 | 0.00 | 0.00 | 58 | 1021.4 |
| 20260506194927 | 61 | 186 | 1.0 | 1.0 | 0.00 | 0.00 | 0.00 | 56 | 1021.6 |
| 20260506194424 | 62 | 190 | 2.0 | 2.0 | 0.00 | 0.00 | 0.00 | 56 | 1021.6 |
| 20260506193921 | 61 | 232 | 3.0 | 3.0 | 0.00 | 0.00 | 0.00 | 54 | 1021.6 |
| 20260506193418 | 62 | 129 | 3.0 | 5.0 | 0.00 | 0.00 | 0.00 | 59 | 1021.6 |
| 20260506192914 | 60 | 355 | 3.0 | 5.0 | 0.00 | 0.00 | 0.00 | 55 | 1021.1 |
| 20260506192411 | 60 | 274 | 3.0 | 3.0 | 0.00 | 0.00 | 0.00 | 52 | 1021.4 |
| 20260506191908 | 61 | 214 | 1.0 | 3.0 | 0.00 | 0.00 | 0.00 | 53 | 1021.6 |
| 20260506191404 | 62 | 255 | 1.0 | 1.0 | 0.00 | 0.00 | 0.00 | 52 | 1021.6 |
| 20260506190902 | 61 | 238 | 2.0 | 2.0 | 0.00 | 0.00 | 0.00 | 57 | 1021.6 |
| 20260506190358 | 60 | 247 | 2.0 | 2.0 | 0.00 | 0.00 | 0.00 | 55 | 1021.5 |
| 20260506185855 | 61 | 224 | 1.0 | 1.0 | 0.00 | 0.00 | 0.00 | 56 | 1021.6 |
| 20260506185352 | 60 | 245 | 1.0 | 1.0 | 0.00 | 0.00 | 0.00 | 56 | 1021.4 |
| 20260506184849 | 59 | 203 | 2.0 | 3.0 | 0.00 | 0.00 | 0.00 | 54 | 1021.5 |
| 20260506184346 | 60 | 344 | 5.0 | 7.0 | 0.00 | 0.00 | 0.00 | 52 | 1021.1 |
| 20260506183843 | 59 | 277 | 0.0 | 1.0 | 0.00 | 0.00 | 0.00 | 55 | 1021.4 |
| 20260506183338 | 59 | 214 | 3.0 | 3.0 | 0.00 | 0.00 | 0.00 | 52 | 1021.4 |
| 20260506182836 | 60 | 254 | 1.0 | 2.0 | 0.00 | 0.00 | 0.00 | 52 | 1021.4 |
| 20260506182333 | 59 | 242 | 1.0 | 2.0 | 0.00 | 0.00 | 0.00 | 57 | 1021.7 |
| 20260506181831 | 59 | 165 | 2.0 | 2.0 | 0.00 | 0.00 | 0.00 | 57 | 1021.4 |
| 20260506181329 | 59 | 341 | 3.0 | 3.0 | 0.00 | 0.00 | 0.00 | 53 | 1021.4 |
| 20260506180825 | 59 | 113 | 1.0 | 2.0 | 0.00 | 0.00 | 0.00 | 56 | 1021.2 |
| 20260506180321 | 58 | 192 | 0.0 | 0.0 | 0.00 | 0.00 | 0.00 | 56 | 1021.4 |
| 20260506175818 | 58 | 299 | 2.0 | 2.0 | 0.00 | 0.00 | 0.00 | 52 | 1021.6 |
| 20260506175315 | 57 | 278 | 2.0 | 2.0 | 0.00 | 0.00 | 0.00 | 55 | 1021.5 |
| 20260506174812 | 58 | 316 | 0.0 | 1.0 | 0.00 | 0.00 | 0.00 | 55 | 1021.6 |
| 20260506174309 | 57 | 214 | 0.0 | 0.0 | 0.00 | 0.00 | 0.00 | 57 | 1021.1 |
| 20260506173807 | 57 | 142 | 4.0 | 5.0 | 0.00 | 0.00 | 0.00 | 55 | 1021.2 |
| 20260506173303 | 56 | 245 | 1.0 | 1.0 | 0.00 | 0.00 | 0.00 | 59 | 1021.2 |
| 20260506172800 | 55 | 259 | 0.0 | 1.0 | 0.00 | 0.00 | 0.00 | 62 | 1021.2 |
| 20260506172257 | 55 | 102 | 1.0 | 1.0 | 0.00 | 0.00 | 0.00 | 58 | 1021.2 |
| 20260506171754 | 56 | 343 | 3.0 | 3.0 | 0.00 | 0.00 | 0.00 | 59 | 1021.2 |
| 20260506171251 | 57 | 112 | 2.0 | 2.0 | 0.00 | 0.00 | 0.00 | 54 | 1021.1 |
| 20260506170749 | 56 | 290 | 2.0 | 2.0 | 0.00 | 0.00 | 0.00 | 56 | 1021.1 |
| 20260506170245 | 56 | 178 | 1.0 | 1.0 | 0.00 | 0.00 | 0.00 | 52 | 1021.1 |
| 20260506165744 | 55 | 253 | 2.0 | 2.0 | 0.00 | 0.00 | 0.00 | 58 | 1020.9 |
| 20260506165241 | 55 | 266 | 2.0 | 2.0 | 0.00 | 0.00 | 0.00 | 54 | 1021.1 |
| 20260506164738 | 55 | 325 | 3.0 | 3.0 | 0.00 | 0.00 | 0.00 | 56 | 1020.9 |
| 20260506164235 | 54 | 189 | 0.0 | 1.0 | 0.00 | 0.00 | 0.00 | 56 | 1020.9 |
| 20260506163732 | 55 | 227 | 0.0 | 1.0 | 0.00 | 0.00 | 0.00 | 61 | 1020.8 |
| 20260506163226 | 53 | 270 | 0.0 | 1.0 | 0.00 | 0.00 | 0.00 | 63 | 1020.8 |
| 20260506162722 | 53 | 243 | 1.0 | 1.0 | 0.00 | 0.00 | 0.00 | 63 | 1020.9 |
| 20260506162220 | 53 | 231 | 0.0 | 1.0 | 0.00 | 0.00 | 0.00 | 65 | 1020.6 |
| 20260506161712 | 53 | 245 | 1.0 | 1.0 | 0.00 | 0.00 | 0.00 | 66 | 1020.5 |
| 20260506161209 | 53 | 240 | 0.0 | 0.0 | 0.00 | 0.00 | 0.00 | 62 | 1020.4 |
| 20260506160706 | 53 | 279 | 1.0 | 1.0 | 0.00 | 0.00 | 0.00 | 63 | 1020.6 |
| 20260506160202 | 53 | 214 | 0.0 | 0.0 | 0.00 | 0.00 | 0.00 | 61 | 1020.8 |
| 20260506155701 | 52 | 88 | 0.0 | 1.0 | 0.00 | 0.00 | 0.00 | 61 | 1020.6 |
| 20260506155158 | 51 | 192 | 1.0 | 2.0 | 0.00 | 0.00 | 0.00 | 64 | 1020.6 |
| 20260506153300 | 49 | 210 | 2.0 | 2.0 | 0.00 | 0.00 | 0.00 | 68 | 1020.4 |
| 20260506152757 | 49 | 259 | 1.0 | 1.0 | 0.00 | 0.00 | 0.00 | 65 | 1020.3 |
| 20260506152254 | 49 | 328 | 0.0 | 1.0 | 0.00 | 0.00 | 0.00 | 65 | 1020.3 |
| 20260506151753 | 48 | 282 | 2.0 | 2.0 | 0.00 | 0.00 | 0.00 | 68 | 1020.3 |
| 20260506151249 | 47 | 248 | 1.0 | 1.0 | 0.00 | 0.00 | 0.00 | 68 | 1020.2 |
| 20260506150746 | 47 | 205 | 1.0 | 1.0 | 0.00 | 0.00 | 0.00 | 71 | 1019.8 |
| 20260506150243 | 46 | 356 | 3.0 | 3.0 | 0.00 | 0.00 | 0.00 | 72 | 1020.2 |
| 20260506145740 | 46 | 315 | 3.0 | 3.0 | 0.00 | 0.00 | 0.00 | 71 | 1019.9 |
| 20260506145236 | 45 | 329 | 2.0 | 3.0 | 0.00 | 0.00 | 0.00 | 73 | 1020.2 |
| 20260506144734 | 45 | 326 | 3.0 | 3.0 | 0.00 | 0.00 | 0.00 | 74 | 1020.2 |
| 20260506144231 | 45 | 299 | 2.0 | 3.0 | 0.00 | 0.00 | 0.00 | 75 | 1019.9 |
| 20260506143728 | 43 | 314 | 3.0 | 3.0 | 0.00 | 0.00 | 0.00 | 78 | 1020.1 |
| 20260506143225 | 43 | 237 | 2.0 | 3.0 | 0.00 | 0.00 | 0.00 | 78 | 1019.9 |
| 20260506142724 | 43 | 226 | 0.0 | 0.0 | 0.00 | 0.00 | 0.00 | 79 | 1020.1 |
| 20260506142221 | 43 | 193 | 6.0 | 7.0 | 0.00 | 0.00 | 0.00 | 77 | 1019.7 |
| 20260506141719 | 44 | 293 | 2.0 | 3.0 | 0.00 | 0.00 | 0.00 | 76 | 1019.9 |
| 20260506141217 | 42 | 291 | 3.0 | 3.0 | 0.00 | 0.00 | 0.00 | 79 | 1019.8 |
| 20260506140715 | 43 | 303 | 5.0 | 7.0 | 0.00 | 0.00 | 0.00 | 79 | 1019.8 |
| 20260506140212 | 42 | 281 | 4.0 | 6.0 | 0.00 | 0.00 | 0.00 | 79 | 1019.6 |
| 20260506135708 | 42 | 282 | 3.0 | 3.0 | 0.00 | 0.00 | 0.00 | 84 | 1019.5 |
| 20260506135205 | 42 | 319 | 0.0 | 1.0 | 0.00 | 0.00 | 0.00 | 82 | 1019.6 |
| 20260506134701 | 42 | 292 | 2.0 | 2.0 | 0.00 | 0.00 | 0.00 | 84 | 1019.6 |
| 20260506134157 | 43 | 302 | 2.0 | 3.0 | 0.00 | 0.00 | 0.00 | 80 | 1019.5 |
| 20260506133655 | 42 | 357 | 6.0 | 7.0 | 0.00 | 0.00 | 0.00 | 82 | 1019.6 |
| 20260506133151 | 41 | 283 | 2.0 | 2.0 | 0.00 | 0.00 | 0.00 | 84 | 1019.3 |
| 20260506132649 | 40 | 279 | 1.0 | 2.0 | 0.00 | 0.00 | 0.00 | 87 | 1019.5 |
| 20260506132145 | 40 | 321 | 3.0 | 5.0 | 0.00 | 0.00 | 0.00 | 88 | 1018.9 |
| 20260506131643 | 40 | 250 | 1.0 | 1.0 | 0.00 | 0.00 | 0.00 | 88 | 1019.1 |
| 20260506131139 | 40 | 287 | 0.0 | 1.0 | 0.00 | 0.00 | 0.00 | 87 | 1019.1 |
| 20260506130636 | 41 | 249 | 0.0 | 0.0 | 0.00 | 0.00 | 0.00 | 85 | 1019.1 |
| 20260506130134 | 40 | 278 | 1.0 | 2.0 | 0.00 | 0.00 | 0.00 | 86 | 1018.8 |
| 20260506125632 | 40 | 261 | 1.0 | 2.0 | 0.00 | 0.00 | 0.00 | 88 | 1019.1 |
| 20260506125129 | 40 | 238 | 1.0 | 1.0 | 0.00 | 0.00 | 0.00 | 88 | 1018.8 |
| 20260506124627 | 39 | 261 | 0.0 | 0.0 | 0.00 | 0.00 | 0.00 | 90 | 1019.0 |
| 20260506124125 | 40 | 223 | 0.0 | 0.0 | 0.00 | 0.00 | 0.00 | 89 | 1018.8 |
| 20260506123622 | 40 | 270 | 4.0 | 5.0 | 0.00 | 0.00 | 0.00 | 89 | 1018.8 |
| 20260506123121 | 40 | 246 | 1.0 | 2.0 | 0.00 | 0.00 | 0.00 | 88 | 1018.4 |
| 20260506122617 | 40 | 230 | 0.0 | 0.0 | 0.00 | 0.00 | 0.00 | 88 | 1018.6 |
| 20260506122115 | 40 | 238 | 0.0 | 1.0 | 0.00 | 0.00 | 0.00 | 89 | 1018.5 |
| 20260506121612 | 39 | 30 | 1.0 | 1.0 | 0.00 | 0.00 | 0.00 | 91 | 1018.5 |
| 20260506121108 | 40 | 239 | 0.0 | 0.0 | 0.00 | 0.00 | 0.00 | 90 | 1018.4 |